Time;durP1;ratioP1;P1;durP2;ratioP2;P2;SDS_P1;SDS_P2;PMS_P1;PMS_P2;Temp;Humidity;BMP_temperature;BMP_pressure;BME280_temperature;BME280_humidity;BME280_pressure;Samples;Min_cycle;Max_cycle;Signal;HPM_P1;HPM_P2
2023/01/11 05:51:09;;;;;;;;;2.00;0.00;;;;;10.63;100.00;100921.00;6207476;22;49860;-70
2023/01/11 05:53:34;;;;;;;;;1.00;1.00;;;;;12.20;100.00;101206.69;6266070;22;49576;-69
2023/01/11 05:55:59;;;;;;;;;1.00;1.00;;;;;12.15;100.00;101183.72;6264812;22;49846;-64
2023/01/11 05:58:25;;;;;;;;;2.00;2.00;;;;;12.12;100.00;101181.03;6272025;22;49645;-65
2023/01/11 06:00:53;;;;;;;;;2.00;2.00;;;;;11.71;100.00;101139.81;6266532;22;49978;-64
2023/01/11 06:03:19;;;;;;;;;1.25;1.25;;;;;11.99;100.00;101182.53;6267205;22;49773;-67
2023/01/11 06:05:45;;;;;;;;;0.50;0.50;;;;;11.67;100.00;101132.69;6268254;22;49704;-73
2023/01/11 06:08:10;;;;;;;;;0.00;0.00;;;;;11.61;100.00;101127.31;6271608;22;49671;-68
2023/01/11 06:10:36;;;;;;;;;1.75;1.75;;;;;11.90;100.00;101175.31;6279487;22;49449;-70
2023/01/11 06:15:45;;;;;;;;;1.00;1.00;;;;;11.52;100.00;101115.69;6271104;22;49691;-71
2023/01/11 06:18:11;;;;;;;;;2.50;1.25;;;;;12.09;100.00;101220.47;6268058;22;49758;-72
2023/01/11 06:20:36;;;;;;;;;3.00;3.00;;;;;12.06;100.00;101217.75;6266562;22;49988;-70
2023/01/11 06:23:02;;;;;;;;;6.00;2.00;;;;;10.60;100.00;101032.06;6269948;22;50759;-74
2023/01/11 06:25:29;;;;;;;;;3.25;2.50;;;;;10.54;100.00;100980.31;6268154;22;49733;-83
2023/01/11 06:27:55;;;;;;;;;3.50;1.00;;;;;11.64;100.00;101176.44;6274806;22;49225;-75
2023/01/11 06:30:20;;;;;;;;;1.25;1.25;;;;;10.44;100.00;101028.19;6278609;22;49759;-87
2023/01/11 06:32:45;;;;;;;;;1.75;1.75;;;;;10.85;100.00;101065.97;6273772;22;49631;-87
2023/01/11 06:35:11;;;;;;;;;3.25;2.00;;;;;11.22;100.00;101150.03;6271258;22;49585;-89
2023/01/11 06:37:41;;;;;;;;;2.00;2.00;;;;;11.88;100.00;101269.13;6277537;22;49158;-82
2023/01/11 06:40:08;;;;;;;;;3.00;3.00;;;;;11.86;100.00;101283.06;6276617;22;49684;-82
2023/01/11 06:43:05;;;;;;;;;6.75;3.00;;;;;10.83;100.00;101096.56;6276367;22;50334;-83
2023/01/11 06:45:31;;;;;;;;;2.75;2.50;;;;;9.31;100.00;100843.34;6302739;22;49470;-91
2023/01/11 06:47:56;;;;;;;;;1.50;1.50;;;;;11.07;100.00;101150.53;6268723;22;49530;-84
2023/01/11 06:50:22;;;;;;;;;2.00;1.00;;;;;10.86;100.00;101116.75;6266605;22;49533;-79
2023/01/11 06:52:59;;;;;;;;;3.50;3.00;;;;;11.42;100.00;101236.41;6266667;22;49706;-78
2023/01/11 06:55:26;;;;;;;;;5.50;4.50;;;;;11.83;100.00;101320.72;6268296;22;49602;-83
2023/01/11 06:57:52;;;;;;;;;3.00;3.00;;;;;11.40;100.00;101267.03;6266651;22;50159;-84
2023/01/11 07:00:18;;;;;;;;;1.75;1.75;;;;;11.86;100.00;101297.09;6268787;22;49447;-81
2023/01/11 07:03:04;;;;;;;;;;;;;;;;;;;;;
2023/01/11 07:05:34;;;;;;;;;1.00;1.00;;;;;10.44;100.00;101080.66;6277846;22;75098;-82
2023/01/11 07:08:00;;;;;;;;;3.75;2.00;;;;;10.98;100.00;101171.31;6272062;22;49653;-80
2023/01/11 07:10:54;;;;;;;;;7.25;4.75;;;;;11.13;100.00;101174.34;6278117;22;49851;-82
2023/01/11 07:13:20;;;;;;;;;4.50;1.25;;;;;11.05;100.00;101168.00;6277438;22;49790;-81
2023/01/11 07:15:59;;;;;;;;;3.75;3.00;;;;;11.24;100.00;101214.91;6301306;22;49200;-82
2023/01/11 07:18:24;;;;;;;;;3.75;1.75;;;;;10.98;100.00;101187.09;6274650;22;49394;-81
2023/01/11 07:21:07;;;;;;;;;7.50;2.75;;;;;11.71;100.00;101336.19;6276617;22;49553;-83
2023/01/11 07:24:00;;;;;;;;;3.25;2.25;;;;;11.65;100.00;101323.75;6275367;22;51981;-83
2023/01/11 07:26:40;;;;;;;;;6.25;2.50;;;;;11.39;100.00;101327.47;6275920;22;49568;-84
2023/01/11 07:29:19;;;;;;;;;5.00;4.50;;;;;9.62;100.00;100976.06;6277457;22;49213;-83
2023/01/11 07:31:47;;;;;;;;;3.00;3.00;;;;;9.40;100.00;100940.53;6276158;22;49706;-82
2023/01/11 07:34:16;;;;;;;;;5.50;4.50;;;;;8.95;100.00;100870.25;6277818;22;51031;-83
2023/01/11 07:36:44;;;;;;;;;3.50;3.50;;;;;11.50;100.00;101331.25;6276942;22;49612;-84
2023/01/11 07:39:10;;;;;;;;;2.00;2.00;;;;;10.43;100.00;101147.13;6279446;22;49319;-80
2023/01/11 07:44:22;;;;;;;;;4.00;3.00;;;;;11.14;100.00;101307.50;6279307;22;50323;-81
2023/01/11 07:46:49;;;;;;;;;4.25;2.50;;;;;10.84;100.00;101265.53;6274888;22;49480;-78
2023/01/11 07:49:17;;;;;;;;;3.25;3.25;;;;;11.24;100.00;101340.19;6269248;22;49527;-81
2023/01/11 07:51:57;;;;;;;;;;;;;;;;;;;;;
2023/01/11 07:54:23;;;;;;;;;2.50;1.00;;;;;11.13;100.00;101374.06;6271601;22;78054;-81
2023/01/11 07:56:49;;;;;;;;;2.00;2.00;;;;;10.73;100.00;101299.38;6265805;22;49665;-81
2023/01/11 07:59:15;;;;;;;;;5.00;3.25;;;;;11.23;100.00;101426.03;6265917;22;49557;-80
2023/01/11 08:01:40;;;;;;;;;2.75;1.25;;;;;9.73;100.00;101163.41;6267256;22;49538;-80
2023/01/11 08:04:13;;;;;;;;;2.75;2.00;;;;;11.17;100.00;101389.94;6268010;22;51291;-83
2023/01/11 08:06:39;;;;;;;;;5.00;2.00;;;;;10.71;100.00;101321.16;6269047;22;49695;-82
2023/01/11 08:09:06;;;;;;;;;5.50;4.50;;;;;11.10;100.00;101437.94;6291218;22;49791;-82
2023/01/11 08:17:02;;;;;;;;;2.25;2.25;;;;;11.06;100.00;101470.19;6267902;22;49719;-81
2023/01/11 08:19:30;;;;;;;;;2.00;2.00;;;;;10.07;100.00;101303.44;6267094;22;49807;-82
2023/01/11 08:21:56;;;;;;;;;1.50;1.00;;;;;11.04;100.00;101473.63;6267817;22;49930;-82
2023/01/11 08:24:26;;;;;;;;;3.00;2.00;;;;;11.05;100.00;101480.66;6266744;22;51495;-82
2023/01/11 08:26:54;;;;;;;;;1.00;1.00;;;;;11.05;100.00;101492.06;6266412;22;49682;-82
2023/01/11 08:29:24;;;;;;;;;2.50;1.50;;;;;11.05;100.00;101488.53;6265257;22;49728;-83
2023/01/11 08:31:53;;;;;;;;;1.50;1.25;;;;;11.06;100.00;101503.47;6268554;22;49586;-83
2023/01/11 08:34:26;;;;;;;;;3.25;2.00;;;;;11.04;100.00;101513.94;6269855;22;50777;-84
2023/01/11 08:37:30;;;;;;;;;4.00;2.75;;;;;8.74;100.00;101079.91;6270318;22;49762;-89
2023/01/11 08:39:57;;;;;;;;;8.50;3.00;;;;;10.41;100.00;101378.88;6265895;22;50009;-79
2023/01/11 08:42:22;;;;;;;;;3.25;1.75;;;;;10.99;100.00;101469.97;6268507;22;49769;-70
2023/01/11 08:44:48;;;;;;;;;3.50;1.75;;;;;10.71;100.00;101426.19;6220074;22;50866;-66
2023/01/11 08:47:13;;;;;;;;;1.00;1.00;;;;;10.59;100.00;101400.47;6236154;22;50249;-68
2023/01/11 08:49:41;;;;;;;;;1.00;1.00;;;;;10.77;100.00;101439.53;6257096;22;49935;-70
2023/01/11 08:52:10;;;;;;;;;2.75;1.25;;;;;9.92;100.00;101285.47;6257919;22;49598;-72
2023/01/11 08:54:35;;;;;;;;;2.50;0.50;;;;;10.72;100.00;101428.00;6256168;22;49983;-69
2023/01/11 08:57:01;;;;;;;;;1.00;1.00;;;;;10.61;100.00;101427.66;6257306;22;49990;-68
2023/01/11 08:59:26;;;;;;;;;7.25;3.25;;;;;10.69;100.00;101423.53;6257671;22;49554;-68
2023/01/11 09:01:51;;;;;;;;;7.00;1.00;;;;;11.12;100.00;101498.41;6258601;22;49815;-68
2023/01/11 09:04:17;;;;;;;;;3.25;2.00;;;;;10.87;100.00;101455.59;6256236;22;50515;-69
2023/01/11 09:06:42;;;;;;;;;8.50;2.50;;;;;11.16;100.00;101495.00;6256780;22;49709;-68
2023/01/11 09:09:07;;;;;;;;;3.75;1.75;;;;;11.02;100.00;101475.31;6256634;22;49679;-67
2023/01/11 09:14:17;;;;;;;;;3.25;2.00;;;;;10.94;100.00;101463.69;6249307;22;49752;-69
2023/01/11 09:16:42;;;;;;;;;4.75;2.00;;;;;10.79;100.00;101435.19;6246294;22;49570;-69
2023/01/11 09:19:07;;;;;;;;;5.25;4.50;;;;;10.99;100.00;101491.88;6258721;22;50056;-69
2023/01/11 09:21:33;;;;;;;;;2.25;2.25;;;;;11.09;100.00;101499.19;6259146;22;50204;-68
2023/01/11 09:23:58;;;;;;;;;6.50;3.75;;;;;10.95;100.00;101489.09;6258848;22;51116;-68
2023/01/11 09:26:23;;;;;;;;;2.00;2.00;;;;;11.05;100.00;101493.81;6259542;22;50017;-69
2023/01/11 09:28:49;;;;;;;;;6.25;3.75;;;;;11.23;100.00;101528.53;6257629;22;49882;-68
2023/01/11 09:31:15;;;;;;;;;4.75;2.00;;;;;11.15;100.00;101519.50;6257533;22;49938;-68
2023/01/11 09:33:40;;;;;;;;;2.50;2.25;;;;;10.02;100.00;101335.66;6257201;22;50550;-68
2023/01/11 09:36:06;;;;;;;;;3.00;2.25;;;;;10.65;100.00;101426.91;6259284;22;49726;-70
2023/01/11 09:38:32;;;;;;;;;0.75;0.75;;;;;10.92;100.00;101478.53;6259524;22;49986;-72
2023/01/11 09:41:35;;;;;;;;;3.00;1.75;;;;;11.26;100.00;101547.00;6258499;22;49900;-72
2023/01/11 09:44:17;;;;;;;;;2.00;0.75;;;;;10.56;100.00;101422.25;6256336;22;49821;-75
2023/01/11 09:46:49;;;;;;;;;2.00;2.00;;;;;11.10;100.00;101535.16;6178125;22;50402;-74
2023/01/11 09:49:39;;;;;;;;;3.25;2.00;;;;;11.11;100.00;101542.19;6257148;22;49621;-68
2023/01/11 09:52:25;;;;;;;;;5.00;3.75;;;;;11.11;100.00;101557.97;6257245;22;49809;-71
2023/01/11 09:54:51;;;;;;;;;2.00;1.00;;;;;11.07;100.00;101568.31;6256074;22;49882;-74
2023/01/11 09:57:40;;;;;;;;;0.75;0.75;;;;;11.02;100.00;101565.53;6257307;22;50215;-67
2023/01/11 10:00:26;;;;;;;;;1.00;1.00;;;;;10.85;100.00;101546.59;6258066;22;49596;-73
2023/01/11 10:03:17;;;;;;;;;1.00;1.00;;;;;10.56;100.00;101495.78;6257218;22;49726;-68
2023/01/11 10:05:58;;;;;;;;;1.25;1.00;;;;;11.02;100.00;101580.41;6257140;22;50155;-67
2023/01/11 10:08:42;;;;;;;;;0.00;0.00;;;;;10.95;100.00;101578.44;6258020;22;49894;-73
2023/01/11 10:11:41;;;;;;;;;1.50;1.00;;;;;11.00;100.00;101587.34;6258050;22;50151;-73
2023/01/11 10:14:07;;;;;;;;;2.00;1.00;;;;;11.00;100.00;101587.34;6256834;22;49810;-71
2023/01/11 10:16:58;;;;;;;;;4.00;2.00;;;;;11.01;100.00;101592.66;6242789;22;49755;-68
2023/01/11 10:19:34;;;;;;;;;1.50;1.50;;;;;10.25;100.00;101451.00;6259388;22;49861;-74
2023/01/11 10:22:08;;;;;;;;;1.00;1.00;;;;;10.94;100.00;101561.78;6260665;22;49893;-67
2023/01/11 10:24:41;;;;;;;;;2.25;1.25;;;;;10.77;100.00;101548.09;6260109;22;49704;-67
2023/01/11 10:27:20;;;;;;;;;2.00;2.00;;;;;10.85;100.00;101554.50;6257767;22;49998;-67
2023/01/11 10:32:56;;;;;;;;;7.25;2.25;;;;;10.96;100.00;101574.97;6257433;22;49723;-66
2023/01/11 10:35:35;;;;;;;;;2.25;2.25;;;;;11.05;100.00;101591.91;6258763;22;50173;-69
2023/01/11 10:38:29;;;;;;;;;1.75;1.75;;;;;10.96;100.00;101569.69;6258915;22;49796;-68
2023/01/11 10:41:24;;;;;;;;;2.00;2.00;;;;;11.13;100.00;101600.03;6257078;22;49747;-68
2023/01/11 10:44:01;;;;;;;;;3.25;2.00;;;;;11.10;100.00;101569.31;6256562;22;49844;-71
2023/01/11 10:46:29;;;;;;;;;2.25;0.75;;;;;11.06;100.00;101582.28;6240485;22;50198;-69
2023/01/11 10:49:17;;;;;;;;;1.75;1.75;;;;;11.25;100.00;101578.50;6253357;22;50832;-68
2023/01/11 10:51:46;;;;;;;;;1.75;1.75;;;;;11.34;100.00;101599.81;6257593;22;50390;-67
2023/01/11 10:54:18;;;;;;;;;0.75;0.50;;;;;10.65;100.00;101471.56;6259128;22;49803;-67
2023/01/11 10:56:53;;;;;;;;;2.75;1.75;;;;;11.42;100.00;101596.59;6256424;22;49906;-69
2023/01/11 10:59:40;;;;;;;;;1.00;1.00;;;;;11.28;100.00;101597.88;6264827;22;50391;-69
2023/01/11 11:02:27;;;;;;;;;3.00;1.50;;;;;11.55;100.00;101605.72;6265230;22;49802;-71
2023/01/11 11:04:59;;;;;;;;;4.75;2.25;;;;;11.11;100.00;101539.56;6265680;22;49983;-70
2023/01/11 11:07:35;;;;;;;;;2.75;2.00;;;;;11.45;100.00;101573.00;6266681;22;49927;-69
2023/01/11 11:10:15;;;;;;;;;6.00;1.00;;;;;11.67;100.00;101595.56;6267014;22;49846;-70
2023/01/11 11:12:55;;;;;;;;;4.50;3.00;;;;;11.69;100.00;101598.25;6267093;22;49866;-69
2023/01/11 11:15:29;;;;;;;;;1.00;1.00;;;;;11.72;100.00;101580.81;6266722;22;49713;-71
2023/01/11 11:17:55;;;;;;;;;7.25;5.25;;;;;11.50;100.00;101538.09;6267010;22;49767;-81
2023/01/11 11:20:24;;;;;;;;;2.00;2.00;;;;;11.58;100.00;101555.88;6265129;22;50811;-69
2023/01/11 11:22:52;;;;;;;;;1.00;1.00;;;;;11.67;100.00;101536.81;6266812;22;49821;-74
2023/01/11 11:25:33;;;;;;;;;1.50;1.00;;;;;12.07;100.00;101588.88;6267450;22;50067;-73
2023/01/11 11:28:49;;;;;;;;;;;;;;;;;;;;;
2023/01/11 11:31:14;;;;;;;;;3.50;1.50;;;;;11.30;100.00;101429.72;6267196;22;79603;-69
2023/01/11 11:33:45;;;;;;;;;1.00;1.00;;;;;12.55;100.00;101631.44;6266988;22;49538;-69
2023/01/11 11:36:12;;;;;;;;;1.75;1.75;;;;;11.84;100.00;101501.38;6267207;22;49920;-70
2023/01/11 11:39:01;;;;;;;;;1.00;1.00;;;;;12.65;100.00;101613.25;6267115;22;49583;-69
2023/01/11 11:41:26;;;;;;;;;4.00;2.00;;;;;11.46;100.00;101400.38;6265679;22;52274;-68
2023/01/11 11:44:07;;;;;;;;;3.50;1.50;;;;;11.78;100.00;101476.66;6267216;22;49668;-68
2023/01/11 11:46:33;;;;;;;;;3.00;2.00;;;;;11.55;100.00;101433.91;6267523;22;49620;-72
2023/01/11 11:49:15;;;;;;;;;8.75;6.25;;;;;12.84;100.00;101626.94;6266485;22;49671;-70
2023/01/11 11:51:43;;;;;;;;;3.25;3.00;;;;;11.53;100.00;101385.66;6266623;22;49790;-75
2023/01/11 11:54:20;;;;;;;;;3.50;2.00;;;;;12.97;100.00;101621.94;6266523;22;49697;-75
2023/01/11 11:56:46;;;;;;;;;2.75;2.00;;;;;13.11;100.00;101636.34;6267290;22;49896;-73
2023/01/11 11:59:16;;;;;;;;;2.75;2.75;;;;;13.24;100.00;101634.94;6266991;22;49956;-69
2023/01/11 12:01:48;;;;;;;;;1.50;1.50;;;;;13.40;100.00;101640.59;6267006;22;50638;-68
2023/01/11 12:04:19;;;;;;;;;5.00;1.00;;;;;12.46;100.00;101474.94;6266289;22;49731;-70
2023/01/11 12:07:22;;;;;;;;;2.75;2.50;;;;;12.82;100.00;101523.19;6265219;22;49701;-71
2023/01/11 12:09:55;;;;;;;;;3.25;3.25;;;;;13.03;100.00;101543.94;6266693;22;50009;-70
2023/01/11 12:12:21;;;;;;;;;3.50;2.50;;;;;13.44;100.00;101579.16;6266668;22;51022;-71
2023/01/11 12:15:15;;;;;;;;;1.00;1.00;;;;;13.74;100.00;101636.97;6263959;22;49908;-71
2023/01/11 12:17:41;;;;;;;;;6.00;3.00;;;;;11.88;100.00;101321.75;6266679;22;49884;-71
2023/01/11 12:20:21;;;;;;;;;1.75;1.75;;;;;13.74;100.00;101638.72;6266822;22;49742;-71
2023/01/11 12:22:52;;;;;;;;;4.00;2.00;;;;;13.48;100.00;101595.06;6266625;22;49776;-71
2023/01/11 12:25:24;;;;;;;;;3.00;2.00;;;;;13.60;100.00;101633.13;6267064;22;49744;-72
2023/01/11 12:28:31;;;;;;;;;5.00;1.75;;;;;12.89;100.00;101543.59;6268065;22;49584;-70
2023/01/11 12:31:26;;;;;;;;;3.50;2.00;;;;;13.40;100.00;101621.25;6198688;22;49702;-71
2023/01/11 12:34:08;;;;;;;;;3.50;3.00;;;;;12.54;100.00;101474.22;6267304;22;49843;-81
2023/01/11 12:36:39;;;;;;;;;2.00;1.00;;;;;13.53;100.00;101625.97;6266314;22;49919;-74
2023/01/11 12:39:34;;;;;;;;;2.00;2.00;;;;;13.50;100.00;101623.22;6267202;22;49877;-72
2023/01/11 12:42:40;;;;;;;;;3.25;1.75;;;;;12.84;100.00;101508.34;6268414;22;49529;-77
2023/01/11 12:45:27;;;;;;;;;1.00;1.00;;;;;13.51;100.00;101639.94;6266888;22;50899;-72
2023/01/11 12:48:34;;;;;;;;;3.25;2.75;;;;;12.64;100.00;101490.25;6266734;22;49557;-75
2023/01/11 12:50:59;;;;;;;;;5.75;2.00;;;;;13.24;100.00;101627.03;6251936;22;50143;-72
2023/01/11 12:53:50;;;;;;;;;1.25;1.25;;;;;13.14;100.00;101624.16;6267008;22;49649;-73
2023/01/11 12:56:15;;;;;;;;;2.25;2.00;;;;;13.09;100.00;101624.88;6266615;22;49531;-75
2023/01/11 12:59:09;;;;;;;;;3.25;3.00;;;;;12.79;100.00;101607.47;6266078;22;49616;-71
2023/01/11 13:01:47;;;;;;;;;5.00;1.50;;;;;12.73;100.00;101598.50;6266537;22;49637;-70
2023/01/11 13:04:25;;;;;;;;;0.00;0.00;;;;;12.81;100.00;101615.41;6266283;22;49668;-71
2023/01/11 13:07:03;;;;;;;;;3.50;1.25;;;;;12.75;100.00;101623.16;6266658;22;50424;-72
2023/01/11 13:09:41;;;;;;;;;6.00;3.00;;;;;12.71;100.00;101619.53;6266490;22;49751;-72
2023/01/11 13:12:17;;;;;;;;;1.50;1.00;;;;;12.70;100.00;101630.03;6266730;22;49751;-71
2023/01/11 13:14:54;;;;;;;;;4.00;2.00;;;;;12.69;100.00;101618.63;6266804;22;49856;-70
2023/01/11 13:17:25;;;;;;;;;2.25;1.00;;;;;12.78;100.00;101623.22;6266147;22;50946;-72
2023/01/11 13:19:59;;;;;;;;;1.00;0.00;;;;;12.80;100.00;101624.16;6266875;22;50119;-71
2023/01/11 13:22:31;;;;;;;;;2.25;2.25;;;;;12.79;100.00;101627.66;6265225;22;49945;-71
2023/01/11 13:25:00;;;;;;;;;4.25;2.25;;;;;12.85;100.00;101622.53;6266848;22;49575;-72
2023/01/11 13:27:30;;;;;;;;;2.00;1.00;;;;;12.97;100.00;101640.41;6264571;22;50503;-70
2023/01/11 13:30:00;;;;;;;;;3.50;1.75;;;;;12.92;100.00;101608.66;6265112;22;49716;-71
2023/01/11 13:32:33;;;;;;;;;7.25;4.25;;;;;13.14;100.00;101629.41;6264542;22;49723;-74
2023/01/11 13:35:11;;;;;;;;;4.50;3.50;;;;;13.26;100.00;101651.69;6266504;22;49628;-71
2023/01/11 13:38:01;;;;;;;;;0.50;0.50;;;;;13.34;100.00;101642.22;6266302;22;49710;-70
2023/01/11 13:40:37;;;;;;;;;1.00;1.00;;;;;13.29;100.00;101633.28;6265815;22;49703;-70
2023/01/11 13:43:09;;;;;;;;;5.25;2.00;;;;;13.15;100.00;101603.94;6264570;22;49582;-71
2023/01/11 13:45:43;;;;;;;;;2.00;0.75;;;;;13.05;100.00;101613.38;6266452;22;49672;-73
2023/01/11 13:48:25;;;;;;;;;1.50;1.50;;;;;13.21;100.00;101645.41;6265372;22;50780;-70
2023/01/11 13:50:55;;;;;;;;;1.00;0.00;;;;;13.07;100.00;101621.31;6265903;22;49788;-71
2023/01/11 13:53:34;;;;;;;;;5.00;4.00;;;;;13.24;100.00;101653.41;6266480;22;49957;-70
2023/01/11 13:56:14;;;;;;;;;1.00;1.00;;;;;13.02;100.00;101621.19;6266425;22;49841;-70
2023/01/11 13:59:07;;;;;;;;;3.00;2.00;;;;;13.05;100.00;101625.66;6265729;22;50870;-71
2023/01/11 14:01:43;;;;;;;;;4.00;1.00;;;;;13.16;100.00;101650.53;6265814;22;49819;-70
2023/01/11 14:04:21;;;;;;;;;7.00;1.00;;;;;13.12;100.00;101657.50;6265879;22;49638;-70
2023/01/11 14:07:24;;;;;;;;;1.75;1.00;;;;;13.09;100.00;101648.59;6266050;22;49633;-70
2023/01/11 14:10:02;;;;;;;;;1.00;1.00;;;;;13.10;100.00;101653.03;6265316;22;51204;-70
2023/01/11 14:12:27;;;;;;;;;0.25;0.25;;;;;13.07;100.00;101656.47;6266480;22;49869;-70
2023/01/11 14:15:37;;;;;;;;;1.00;1.00;;;;;12.57;100.00;101558.63;6266054;22;49751;-71
2023/01/11 14:18:24;;;;;;;;;4.25;2.25;;;;;13.12;100.00;101644.31;6169466;23;49832;-70
2023/01/11 14:21:18;;;;;;;;;1.75;0.75;;;;;13.16;100.00;101648.78;6171080;23;50455;-70
2023/01/11 14:23:52;;;;;;;;;4.00;2.00;;;;;12.77;100.00;101569.66;6255704;22;49604;-71
2023/01/11 14:26:36;;;;;;;;;1.75;1.75;;;;;13.16;100.00;101646.16;6278579;22;49385;-70
2023/01/11 14:29:29;;;;;;;;;1.00;1.00;;;;;12.96;100.00;101615.78;6276075;22;49767;-70
2023/01/11 14:32:09;;;;;;;;;2.75;2.25;;;;;12.92;100.00;101626.19;6276906;22;51045;-70
2023/01/11 14:34:38;;;;;;;;;4.00;2.75;;;;;13.05;100.00;101654.66;6276794;22;49404;-70
2023/01/11 14:37:12;;;;;;;;;1.50;0.50;;;;;13.03;100.00;101656.38;6278342;22;49471;-70
2023/01/11 14:39:58;;;;;;;;;1.00;1.00;;;;;13.02;100.00;101660.72;6272465;22;49657;-70
2023/01/11 14:42:31;;;;;;;;;3.25;3.25;;;;;13.01;100.00;101660.69;6266095;22;49705;-74
2023/01/11 14:44:59;;;;;;;;;3.25;3.00;;;;;12.98;100.00;101668.53;6265470;22;49654;-70
2023/01/11 14:47:25;;;;;;;;;4.00;2.75;;;;;12.95;100.00;101673.75;6265261;22;50242;-70
2023/01/11 14:50:03;;;;;;;;;5.25;2.00;;;;;12.86;100.00;101658.59;6266423;22;49764;-70
2023/01/11 14:52:33;;;;;;;;;4.00;2.75;;;;;12.89;100.00;101666.56;6263222;22;49924;-71
2023/01/11 14:55:04;;;;;;;;;5.00;3.00;;;;;12.65;100.00;101636.94;6265891;22;49749;-69
2023/01/11 14:57:41;;;;;;;;;6.75;4.75;;;;;12.70;100.00;101659.03;6266413;22;50081;-71
2023/01/11 15:00:13;;;;;;;;;7.25;4.75;;;;;12.80;100.00;101682.13;6265503;22;49823;-70
2023/01/11 15:02:38;;;;;;;;;5.50;3.75;;;;;12.69;100.00;101667.78;6265199;22;49790;-71
2023/01/11 15:05:05;;;;;;;;;2.50;2.50;;;;;12.51;100.00;101641.84;6264592;22;51034;-75
2023/01/11 15:07:31;;;;;;;;;3.50;2.50;;;;;12.68;100.00;101685.34;6265940;22;49656;-75
2023/01/11 15:10:03;;;;;;;;;1.00;0.50;;;;;12.48;100.00;101660.19;6263496;22;50003;-71
2023/01/11 15:12:33;;;;;;;;;4.00;1.00;;;;;12.56;100.00;101691.16;6265509;22;49899;-70
2023/01/11 15:15:19;;;;;;;;;3.50;3.00;;;;;12.53;100.00;101698.06;6265603;22;49479;-71
2023/01/11 15:21:10;;;;;;;;;0.75;0.75;;;;;12.43;100.00;101686.38;6265924;22;49705;-71
2023/01/11 15:23:44;;;;;;;;;6.00;2.75;;;;;12.14;100.00;101638.19;6247284;22;50531;-70
2023/01/11 15:26:13;;;;;;;;;1.00;1.00;;;;;12.16;100.00;101648.75;6265542;22;49545;-70
2023/01/11 15:28:42;;;;;;;;;2.25;1.00;;;;;12.39;100.00;101692.44;6265715;22;49541;-70
2023/01/11 15:31:35;;;;;;;;;2.75;1.75;;;;;11.97;100.00;101619.31;6263893;22;49913;-71
2023/01/11 15:34:17;;;;;;;;;3.00;1.00;;;;;12.30;100.00;101689.53;6263167;22;50647;-70
2023/01/11 15:37:07;;;;;;;;;0.75;0.75;;;;;12.32;100.00;101698.38;6265751;22;49621;-71
2023/01/11 15:39:37;;;;;;;;;2.50;2.00;;;;;12.21;100.00;101679.63;6265397;22;49829;-70
2023/01/11 15:42:35;;;;;;;;;3.00;3.00;;;;;12.12;100.00;101674.09;6266424;22;49636;-77
2023/01/11 15:45:30;;;;;;;;;1.75;1.75;;;;;12.09;100.00;101679.28;6265809;22;49648;-71
2023/01/11 15:48:22;;;;;;;;;3.25;2.00;;;;;12.15;100.00;101687.34;6289467;22;49758;-71
2023/01/11 15:51:50;;;;;;;;;3.25;2.00;;;;;12.09;100.00;101675.75;6265979;22;49758;-71
2023/01/11 15:54:49;;;;;;;;;3.50;2.50;;;;;12.07;100.00;101694.16;6201952;22;50048;-70
2023/01/11 15:57:55;;;;;;;;;9.00;6.25;;;;;12.01;100.00;101697.47;6202750;22;50427;-69
2023/01/11 16:00:54;;;;;;;;;6.75;4.75;;;;;11.97;100.00;101698.25;6228789;22;49691;-69
2023/01/11 16:03:37;;;;;;;;;7.25;4.50;;;;;11.96;100.00;101695.53;6266616;22;49696;-71
2023/01/11 16:06:30;;;;;;;;;3.50;3.50;;;;;11.94;100.00;101698.13;6267628;22;49695;-72
2023/01/11 16:09:18;;;;;;;;;8.75;3.25;;;;;11.90;100.00;101700.63;6266978;22;50105;-72
2023/01/11 16:12:05;;;;;;;;;6.50;4.75;;;;;11.75;100.00;101675.59;6267125;22;49672;-71
2023/01/11 16:14:30;;;;;;;;;3.00;3.00;;;;;11.85;100.00;101705.75;6267483;22;49804;-89
2023/01/11 16:16:56;;;;;;;;;7.75;7.75;;;;;11.45;100.00;101653.63;6265767;22;49832;-66
2023/01/11 16:19:27;;;;;;;;;5.00;4.75;;;;;11.61;100.00;101687.44;6265144;22;52578;-70
2023/01/11 16:21:57;;;;;;;;;2.00;2.00;;;;;11.81;100.00;101745.97;6267236;22;49836;-68
2023/01/11 16:24:28;;;;;;;;;4.50;2.25;;;;;11.33;100.00;101645.34;6267297;22;49710;-71
2023/01/11 16:27:00;;;;;;;;;1.25;1.25;;;;;11.75;100.00;101728.22;6267153;22;49671;-69
2023/01/11 16:29:29;;;;;;;;;9.50;5.00;;;;;11.64;100.00;101716.47;6266944;22;50808;-67
2023/01/11 16:31:57;;;;;;;;;1.00;1.00;;;;;11.57;100.00;101693.44;6267382;22;49672;-70
2023/01/11 16:34:23;;;;;;;;;3.00;3.00;;;;;11.76;100.00;101756.31;6264481;22;49646;-65
2023/01/11 16:36:48;;;;;;;;;2.00;2.00;;;;;11.57;100.00;101722.38;6267676;22;49734;-70
2023/01/11 16:39:20;;;;;;;;;2.50;2.50;;;;;11.55;100.00;101716.16;6290645;22;51815;-70
2023/01/11 16:41:53;;;;;;;;;4.50;2.50;;;;;11.70;100.00;101732.44;6267687;22;49610;-70
2023/01/11 16:44:26;;;;;;;;;2.75;1.00;;;;;11.67;100.00;101732.34;6265586;22;49018;-71
2023/01/11 16:47:15;;;;;;;;;3.00;3.00;;;;;11.64;100.00;101745.41;6265255;22;49515;-70
2023/01/11 16:49:47;;;;;;;;;3.00;1.75;;;;;11.20;100.00;101672.09;6266867;22;50601;-70
2023/01/11 16:52:30;;;;;;;;;5.25;4.00;;;;;11.60;100.00;101751.41;6266615;22;50063;-70
2023/01/11 16:54:59;;;;;;;;;4.00;3.50;;;;;11.62;100.00;101751.47;6267235;22;49732;-71
2023/01/11 16:57:38;;;;;;;;;3.50;3.50;;;;;11.31;100.00;101710.13;6267686;22;49538;-70
2023/01/11 17:00:07;;;;;;;;;4.75;2.75;;;;;11.27;100.00;101709.13;6265183;22;51888;-71
2023/01/11 17:02:36;;;;;;;;;6.00;4.75;;;;;11.43;100.00;101760.47;6266361;22;50180;-70
2023/01/11 17:05:16;;;;;;;;;5.00;4.00;;;;;11.42;100.00;101759.59;6265961;22;49794;-70
2023/01/11 17:07:41;;;;;;;;;8.75;4.25;;;;;11.04;100.00;101682.09;6265284;22;49684;-70
2023/01/11 17:10:28;;;;;;;;;4.00;3.00;;;;;11.53;100.00;101772.19;6267055;22;49869;-70
2023/01/11 17:16:13;;;;;;;;;7.00;1.00;;;;;11.10;100.00;101718.22;6266895;22;49917;-75
2023/01/11 17:18:40;;;;;;;;;2.25;2.25;;;;;11.29;100.00;101731.13;6266257;22;49781;-71
2023/01/11 17:21:27;;;;;;;;;7.25;2.00;;;;;11.17;100.00;101715.81;6267001;22;49784;-71
2023/01/11 17:24:03;;;;;;;;;3.25;2.00;;;;;11.45;100.00;101772.84;6266675;22;49588;-72
2023/01/11 17:26:41;;;;;;;;;2.50;1.75;;;;;11.08;100.00;101702.34;6239673;22;49665;-71
2023/01/11 17:29:07;;;;;;;;;7.50;2.25;;;;;11.24;100.00;101727.44;6267195;22;49715;-70
2023/01/11 17:31:35;;;;;;;;;3.00;2.25;;;;;11.42;100.00;101767.47;6267996;22;51019;-72
2023/01/11 17:34:14;;;;;;;;;1.00;1.00;;;;;10.78;100.00;101660.19;6267838;22;49769;-72
2023/01/11 17:36:40;;;;;;;;;7.25;3.00;;;;;11.39;100.00;101771.75;6268579;22;49977;-69
2023/01/11 17:39:06;;;;;;;;;4.00;4.00;;;;;11.15;100.00;101730.63;6263596;22;50029;-69
2023/01/11 17:47:09;;;;;;;;;4.75;3.00;;;;;11.11;100.00;101722.63;6264500;22;50033;-69
2023/01/11 17:49:36;;;;;;;;;1.50;1.50;;;;;11.39;100.00;101769.13;6264428;22;49802;-70
2023/01/11 17:52:35;;;;;;;;;3.50;2.25;;;;;11.36;100.00;101759.38;6262524;22;50252;-69
2023/01/11 17:55:23;;;;;;;;;4.00;2.00;;;;;11.21;100.00;101735.22;6246869;22;49846;-69
2023/01/11 17:58:14;;;;;;;;;4.25;3.00;;;;;11.22;100.00;101739.63;6264741;22;49772;-70
2023/01/11 18:00:41;;;;;;;;;2.25;2.25;;;;;11.22;100.00;101737.00;6266930;22;49632;-69
2023/01/11 18:03:13;;;;;;;;;2.50;1.75;;;;;11.29;100.00;101752.16;6290099;22;51547;-72
2023/01/11 18:05:39;;;;;;;;;7.00;2.00;;;;;11.30;100.00;101751.31;6266732;22;49617;-73
2023/01/11 18:08:08;;;;;;;;;6.50;3.25;;;;;10.99;100.00;101701.16;6266858;22;49662;-71
2023/01/11 18:10:39;;;;;;;;;4.25;3.75;;;;;11.37;100.00;101770.78;6266915;22;49808;-70
2023/01/11 18:13:04;;;;;;;;;3.00;3.00;;;;;11.00;100.00;101700.31;6266247;22;49783;-70
2023/01/11 18:15:33;;;;;;;;;4.00;3.50;;;;;11.14;100.00;101727.97;6266140;22;49586;-69
2023/01/11 18:17:59;;;;;;;;;3.75;3.75;;;;;11.20;100.00;101736.06;6265455;22;49601;-70